Terminal Aerodrome Forecast
Issued by NWS Cleveland, OH

Home | Current Version | Previous Version | Graphics & Text | Print | Product List | Glossary On
Versions: 1 2 3 4 5 6 7 8 9 10 11 12 13 14 15 16 17 18 19 20 21 22
000
FTUS41 KCLE 141000 AAB
TAFYNG
TAF AMD
KYNG 141018Z 1410/1506 VRB03KT 6SM BR SCT030
      TEMPO 1411/1413 5SM BR
     FM141400 15005KT P6SM BKN035
     FM141900 27003KT P6SM SCT035=

USA.gov is the U.S. government's official web portal to all federal, state and local government web resources and services.